Main page
METAR-TAF:

METAR-TAF

Airports :

J. Lynn Helms Sevier County Airport

De Queen, Arkansas, United States

latitude: 34-02-49N, longitude: 094-23-58W, elevation: 354 ft

Current weather observation

The report was made 31 minutes ago, at 07:53 UTC
Wind 3 mph from the Southeast
Temperature 79°F
Humidity 84%
Pressure 29.86 in. Hg
Visibility: 10 miles
Clear sky

METAR: KDEQ 170753Z AUTO 14003KT 10SM CLR 26/23 A2986 RMK AO2 SLP106 T02560228

Time: 03:24 (08:24 UTC)


TAF: missing

Weather observations and forecasts of more than 4000 airports (METAR and TAF reports).

The available stations are represented by yellow and red dots on the map.

Hover mouse over dot to see the name of the station.

Then click to see weather observations and forecasts.

To change the map : click on the green buttons with a black cross to zoom in, on the green button with a dash to zoom out, or on the green arrows for adjacent maps.


METAR-TAF: